createdAt,value
2018-03-26T00:00:19.007Z,8.18
2018-03-26T00:01:25.804Z,8.16
2018-03-26T00:02:32.560Z,8.16
2018-03-26T00:03:39.406Z,8.16
2018-03-26T00:04:46.201Z,8.13
2018-03-26T00:05:52.978Z,8.14
2018-03-26T00:06:59.828Z,8.12
2018-03-26T00:08:06.587Z,8.11
2018-03-26T00:09:13.359Z,8.10
2018-03-26T00:10:20.125Z,8.08
2018-03-26T00:11:26.892Z,8.08
2018-03-26T00:12:33.657Z,8.07
2018-03-26T00:13:40.435Z,8.07
2018-03-26T00:14:47.275Z,8.06
2018-03-26T00:15:54.052Z,8.04
2018-03-26T00:17:00.826Z,8.03
2018-03-26T00:18:07.696Z,8.02
2018-03-26T00:19:14.459Z,8.02
2018-03-26T00:20:21.233Z,8.01
2018-03-26T00:21:28.221Z,8.00
2018-03-26T00:22:34.962Z,7.98
2018-03-26T00:23:41.712Z,7.97
2018-03-26T00:24:48.549Z,7.94
2018-03-26T00:25:55.336Z,7.93
2018-03-26T00:27:02.119Z,7.93
2018-03-26T00:28:09.004Z,7.92
2018-03-26T00:29:15.748Z,7.92
2018-03-26T00:30:22.512Z,7.91
2018-03-26T00:31:29.488Z,7.89
2018-03-26T00:32:36.311Z,7.89
2018-03-26T00:33:43.087Z,7.89
2018-03-26T00:34:50.021Z,7.88
2018-03-26T00:35:56.737Z,7.86
2018-03-26T00:37:03.528Z,7.83
2018-03-26T00:38:10.309Z,7.84
2018-03-26T00:39:17.100Z,7.83
2018-03-26T00:40:23.846Z,7.82
2018-03-26T00:41:30.713Z,7.81
2018-03-26T00:42:37.501Z,7.82
2018-03-26T00:43:44.298Z,7.80
2018-03-26T00:44:51.177Z,7.79
2018-03-26T00:45:57.909Z,7.79
2018-03-26T00:47:04.676Z,7.76
2018-03-26T00:48:11.425Z,7.76
2018-03-26T00:49:18.199Z,7.75
2018-03-26T00:50:24.917Z,7.75
2018-03-26T00:51:31.670Z,7.74
2018-03-26T00:52:38.489Z,7.73
2018-03-26T00:53:45.273Z,7.72
2018-03-26T00:54:52.009Z,7.71
2018-03-26T00:55:58.781Z,7.70
2018-03-26T00:57:05.518Z,7.70
2018-03-26T00:58:12.376Z,7.68
2018-03-26T00:59:19.149Z,7.68
2018-03-26T01:00:25.915Z,7.67
2018-03-26T01:01:32.766Z,7.66
2018-03-26T01:02:39.528Z,7.65
2018-03-26T01:03:46.277Z,7.64
2018-03-26T01:04:53.192Z,7.62
2018-03-26T01:05:59.955Z,7.64
2018-03-26T01:07:06.699Z,7.61
2018-03-26T01:08:13.427Z,7.61
2018-03-26T01:09:20.264Z,7.62
2018-03-26T01:10:27.001Z,7.60
2018-03-26T01:11:33.795Z,7.59
2018-03-26T01:12:40.520Z,7.58
2018-03-26T01:13:47.322Z,7.56
2018-03-26T01:14:54.064Z,7.56
2018-03-26T01:16:00.808Z,7.55
2018-03-26T01:17:07.688Z,7.56
2018-03-26T01:18:14.443Z,7.55
2018-03-26T01:19:21.191Z,7.55
2018-03-26T01:20:27.924Z,7.53
2018-03-26T01:21:34.750Z,7.53
2018-03-26T01:22:41.495Z,7.52
2018-03-26T01:23:48.244Z,7.50
2018-03-26T01:24:54.983Z,7.49
2018-03-26T01:26:01.779Z,7.49
2018-03-26T01:27:08.582Z,7.47
2018-03-26T01:28:15.329Z,7.48
2018-03-26T01:29:22.076Z,7.48
2018-03-26T01:30:28.842Z,7.47
2018-03-26T01:31:35.620Z,7.45
2018-03-26T01:32:42.356Z,7.45
2018-03-26T01:33:49.094Z,7.43
2018-03-26T01:34:55.916Z,7.43
2018-03-26T01:36:02.671Z,7.41
2018-03-26T01:37:09.407Z,7.42
2018-03-26T01:38:16.147Z,7.40
2018-03-26T01:39:22.979Z,7.39
2018-03-26T01:40:29.728Z,7.38
2018-03-26T01:41:36.478Z,7.37
2018-03-26T01:42:43.225Z,7.37
2018-03-26T01:43:50.016Z,7.37
2018-03-26T01:44:56.800Z,7.34
2018-03-26T01:46:03.552Z,7.34
2018-03-26T01:47:10.317Z,7.34
2018-03-26T01:48:17.081Z,7.33
2018-03-26T01:49:23.817Z,7.33
2018-03-26T01:50:30.593Z,7.32
2018-03-26T01:51:37.376Z,7.32
2018-03-26T01:52:44.181Z,7.31
2018-03-26T01:53:50.951Z,7.28
2018-03-26T01:54:57.684Z,7.29
2018-03-26T01:56:04.551Z,7.29
2018-03-26T01:57:11.316Z,7.28
2018-03-26T01:58:18.067Z,7.28
2018-03-26T01:59:24.815Z,7.28
2018-03-26T02:00:31.579Z,7.27
2018-03-26T02:01:38.317Z,7.24
2018-03-26T02:02:45.088Z,7.25
2018-03-26T02:03:51.832Z,7.23
2018-03-26T02:04:58.636Z,7.23
2018-03-26T02:06:05.379Z,7.20
2018-03-26T02:07:12.111Z,7.21
2018-03-26T02:08:18.872Z,7.21
2018-03-26T02:09:25.701Z,7.21
2018-03-26T02:10:32.588Z,7.19
2018-03-26T02:11:39.326Z,7.18
2018-03-26T02:12:46.090Z,7.17
2018-03-26T02:13:52.819Z,7.17
2018-03-26T02:14:59.582Z,7.16
2018-03-26T02:16:06.756Z,7.16
2018-03-26T02:17:13.523Z,7.17
2018-03-26T02:18:20.293Z,7.16
2018-03-26T02:19:27.033Z,7.16
2018-03-26T02:20:33.779Z,7.16
2018-03-26T02:21:40.569Z,7.14
2018-03-26T02:22:47.372Z,7.13
2018-03-26T02:23:54.131Z,7.13
2018-03-26T02:25:00.895Z,7.13
2018-03-26T02:26:07.762Z,7.11
2018-03-26T02:27:14.555Z,7.12
2018-03-26T02:28:21.307Z,7.10
2018-03-26T02:29:28.056Z,7.10
2018-03-26T02:30:34.805Z,7.08
2018-03-26T02:31:41.566Z,7.08
2018-03-26T02:32:48.425Z,7.08
2018-03-26T02:33:55.221Z,7.06
2018-03-26T02:35:01.977Z,7.06
2018-03-26T02:36:08.757Z,7.06
2018-03-26T02:37:15.589Z,7.05
2018-03-26T02:38:22.321Z,7.05
2018-03-26T02:39:29.049Z,7.04
2018-03-26T02:40:35.891Z,7.02
2018-03-26T02:41:42.748Z,7.03
2018-03-26T02:42:49.505Z,7.02
2018-03-26T02:43:56.261Z,7.02
2018-03-26T02:45:03.081Z,7.00
2018-03-26T02:46:09.841Z,7.00
2018-03-26T02:47:16.603Z,6.99
2018-03-26T02:48:23.335Z,6.99
2018-03-26T02:49:30.124Z,7.00
2018-03-26T02:50:36.882Z,6.98
2018-03-26T02:51:43.661Z,6.97
2018-03-26T02:52:50.455Z,6.97
2018-03-26T02:53:57.221Z,6.97
2018-03-26T02:55:03.965Z,6.96
2018-03-26T02:56:10.735Z,6.96
2018-03-26T02:57:17.460Z,6.95
2018-03-26T02:58:24.274Z,6.94
2018-03-26T02:59:31.038Z,6.93
2018-03-26T03:00:37.771Z,6.94
2018-03-26T03:01:44.517Z,6.92
2018-03-26T03:02:51.295Z,6.92
2018-03-26T03:03:58.056Z,6.92
2018-03-26T03:05:04.853Z,6.90
2018-03-26T03:06:11.719Z,6.90
2018-03-26T03:07:18.481Z,6.90
2018-03-26T03:08:25.267Z,6.89
2018-03-26T03:09:32.099Z,6.87
2018-03-26T03:10:38.903Z,6.87
2018-03-26T03:11:45.642Z,6.87
2018-03-26T03:12:52.470Z,6.87
2018-03-26T03:13:59.208Z,6.87
2018-03-26T03:15:05.979Z,6.87
2018-03-26T03:16:12.738Z,6.85
2018-03-26T03:17:19.523Z,6.83
2018-03-26T03:18:26.316Z,6.84
2018-03-26T03:19:33.165Z,6.82
2018-03-26T03:20:39.931Z,6.84
2018-03-26T03:21:46.679Z,6.83
2018-03-26T03:22:53.456Z,6.82
2018-03-26T03:24:00.296Z,6.81
2018-03-26T03:25:07.068Z,6.80
2018-03-26T03:26:13.795Z,6.80
2018-03-26T03:27:20.552Z,6.80
2018-03-26T03:28:27.380Z,6.80
2018-03-26T03:29:34.162Z,6.79
2018-03-26T03:30:40.931Z,6.78
2018-03-26T03:31:47.748Z,6.78
2018-03-26T03:32:54.488Z,6.77
2018-03-26T03:34:01.231Z,6.76
2018-03-26T03:35:08.012Z,6.76
2018-03-26T03:36:14.805Z,6.76
2018-03-26T03:37:21.555Z,6.75
2018-03-26T03:38:28.325Z,6.75
2018-03-26T03:39:35.071Z,6.75
2018-03-26T03:40:41.871Z,6.74
2018-03-26T03:41:48.596Z,6.74
2018-03-26T03:42:55.411Z,6.73
2018-03-26T03:44:02.256Z,6.73
2018-03-26T03:45:09.044Z,6.71
2018-03-26T03:46:15.804Z,6.71
2018-03-26T03:47:22.567Z,6.71
2018-03-26T03:48:29.292Z,6.70
2018-03-26T03:49:36.049Z,6.71
2018-03-26T03:50:42.887Z,6.70
2018-03-26T03:51:49.976Z,6.69
2018-03-26T03:52:57.033Z,6.68
2018-03-26T03:54:03.828Z,6.68
2018-03-26T03:55:10.647Z,6.67
2018-03-26T03:56:17.404Z,6.66
2018-03-26T03:57:24.148Z,6.67
2018-03-26T03:58:30.941Z,6.66
2018-03-26T03:59:37.710Z,6.66
2018-03-26T04:00:44.459Z,6.65
2018-03-26T04:01:51.292Z,6.65
2018-03-26T04:02:58.099Z,6.62
2018-03-26T04:04:04.844Z,6.64
2018-03-26T04:05:11.578Z,6.64
2018-03-26T04:06:18.338Z,6.62
2018-03-26T04:07:25.172Z,6.62
2018-03-26T04:08:31.903Z,6.63
2018-03-26T04:09:38.644Z,6.61
2018-03-26T04:10:45.376Z,6.60
2018-03-26T04:11:52.236Z,6.59
2018-03-26T04:12:59.060Z,6.59
2018-03-26T04:14:05.812Z,6.58
2018-03-26T04:15:12.707Z,6.57
2018-03-26T04:16:19.488Z,6.58
2018-03-26T04:17:26.328Z,6.58
2018-03-26T04:18:33.062Z,6.57
2018-03-26T04:19:39.805Z,6.57
2018-03-26T04:20:46.538Z,6.57
2018-03-26T04:21:53.278Z,6.56
2018-03-26T04:23:00.116Z,6.56
2018-03-26T04:24:06.864Z,6.53
2018-03-26T04:25:13.621Z,6.55
2018-03-26T04:26:20.343Z,6.56
2018-03-26T04:27:27.192Z,6.54
2018-03-26T04:28:33.923Z,6.53
2018-03-26T04:29:40.670Z,6.52
2018-03-26T04:30:47.428Z,6.53
2018-03-26T04:31:54.216Z,6.51
2018-03-26T04:33:00.955Z,6.51
2018-03-26T04:34:07.727Z,6.51
2018-03-26T04:35:14.447Z,6.50
2018-03-26T04:36:21.292Z,6.49
2018-03-26T04:37:28.048Z,6.49
2018-03-26T04:38:34.792Z,6.48
2018-03-26T04:39:41.547Z,6.49
2018-03-26T04:40:48.356Z,6.47
2018-03-26T04:41:55.091Z,6.49
2018-03-26T04:43:01.967Z,6.47
2018-03-26T04:44:08.782Z,6.47
2018-03-26T04:45:15.543Z,6.45
2018-03-26T04:46:22.312Z,6.46
2018-03-26T04:47:29.044Z,6.45
2018-03-26T04:48:35.868Z,6.44
2018-03-26T04:49:42.629Z,6.43
2018-03-26T04:50:49.359Z,6.43
2018-03-26T04:51:56.130Z,6.42
2018-03-26T04:53:02.924Z,6.44
2018-03-26T04:54:09.704Z,6.43
2018-03-26T04:55:16.541Z,6.42
2018-03-26T04:56:23.464Z,6.41
2018-03-26T04:57:30.192Z,6.40
2018-03-26T04:58:36.933Z,6.41
2018-03-26T04:59:43.802Z,6.41
2018-03-26T05:00:50.530Z,6.41
2018-03-26T05:01:57.272Z,6.40
2018-03-26T05:03:04.008Z,6.40
2018-03-26T05:04:10.872Z,6.39
2018-03-26T05:05:17.600Z,6.39
2018-03-26T05:06:24.457Z,6.39
2018-03-26T05:07:31.260Z,6.38
2018-03-26T05:08:38.095Z,6.37
2018-03-26T05:09:44.887Z,6.37
2018-03-26T05:10:51.639Z,6.36
2018-03-26T05:11:58.387Z,6.36
2018-03-26T05:13:05.116Z,6.36
2018-03-26T05:14:11.845Z,6.35
2018-03-26T05:15:18.687Z,6.35
2018-03-26T05:16:25.464Z,6.35
2018-03-26T05:17:32.215Z,6.34
2018-03-26T05:18:38.950Z,6.34
2018-03-26T05:19:45.690Z,6.34
2018-03-26T05:20:52.468Z,6.33
2018-03-26T05:21:59.203Z,6.31
2018-03-26T05:23:05.960Z,6.32
2018-03-26T05:24:12.698Z,6.30
2018-03-26T05:25:19.420Z,6.31
2018-03-26T05:26:26.196Z,6.29
2018-03-26T05:27:32.964Z,6.30
2018-03-26T05:28:39.762Z,6.31
2018-03-26T05:29:46.540Z,6.28
2018-03-26T05:30:53.330Z,6.28
2018-03-26T05:32:00.207Z,6.28
2018-03-26T05:33:06.988Z,6.29
2018-03-26T05:34:13.778Z,6.28
2018-03-26T05:35:20.620Z,6.29
2018-03-26T05:36:27.405Z,6.27
2018-03-26T05:37:34.151Z,6.26
2018-03-26T05:38:40.955Z,6.25
2018-03-26T05:39:47.697Z,6.26
2018-03-26T05:40:54.453Z,6.26
2018-03-26T05:42:01.256Z,6.25
2018-03-26T05:43:08.091Z,6.26
2018-03-26T05:44:14.852Z,6.24
2018-03-26T05:45:21.645Z,6.24
2018-03-26T05:46:28.576Z,6.23
2018-03-26T05:47:35.339Z,6.23
2018-03-26T05:48:42.242Z,6.23
2018-03-26T05:49:49.022Z,6.22
2018-03-26T05:50:55.783Z,6.21
2018-03-26T05:52:02.677Z,6.23
2018-03-26T05:53:09.647Z,6.20
2018-03-26T05:54:16.547Z,6.19
2018-03-26T05:55:23.332Z,6.21
2018-03-26T05:56:30.385Z,6.20
2018-03-26T05:57:37.312Z,6.19
2018-03-26T05:58:44.067Z,6.19
2018-03-26T05:59:51.091Z,6.19
2018-03-26T06:00:57.887Z,6.20
2018-03-26T06:02:04.667Z,6.19
2018-03-26T06:03:11.813Z,6.17
2018-03-26T06:04:18.652Z,6.17
2018-03-26T06:05:25.403Z,6.17
2018-03-26T06:06:32.182Z,6.17
2018-03-26T06:07:39.046Z,6.17
2018-03-26T06:08:45.788Z,6.16
2018-03-26T06:09:52.589Z,6.16
2018-03-26T06:10:59.343Z,6.16
2018-03-26T06:12:06.117Z,6.17
2018-03-26T06:13:12.919Z,6.16
2018-03-26T06:14:19.680Z,6.16
2018-03-26T06:15:26.541Z,6.15
2018-03-26T06:16:33.300Z,6.15
2018-03-26T06:17:40.159Z,6.15
2018-03-26T06:18:47.000Z,6.14
2018-03-26T06:19:53.827Z,6.14
2018-03-26T06:21:00.612Z,6.14
2018-03-26T06:22:07.444Z,6.14
2018-03-26T06:23:14.276Z,6.15
2018-03-26T06:24:21.184Z,6.14
2018-03-26T06:25:28.000Z,6.14
2018-03-26T06:26:34.945Z,6.14
2018-03-26T06:27:41.766Z,6.12
2018-03-26T06:28:48.588Z,6.13
2018-03-26T06:29:55.363Z,6.12
2018-03-26T06:31:02.180Z,6.12
2018-03-26T06:32:08.996Z,6.13
2018-03-26T06:33:15.788Z,6.12
2018-03-26T06:34:22.627Z,6.12
2018-03-26T06:35:29.417Z,6.13
2018-03-26T06:36:36.199Z,6.11
2018-03-26T06:37:43.008Z,6.12
2018-03-26T06:38:49.834Z,6.11
2018-03-26T06:39:56.660Z,6.13
2018-03-26T06:41:03.424Z,6.12
2018-03-26T06:42:10.227Z,6.11
2018-03-26T06:43:17.047Z,6.12
2018-03-26T06:44:23.878Z,6.11
2018-03-26T06:45:30.627Z,6.11
2018-03-26T06:46:37.598Z,6.12
2018-03-26T06:47:44.368Z,6.10
2018-03-26T06:48:51.245Z,6.10
2018-03-26T06:49:58.039Z,6.12
2018-03-26T06:51:04.840Z,6.11
2018-03-26T06:52:11.648Z,6.10
2018-03-26T06:53:18.407Z,6.11
2018-03-26T06:54:25.183Z,6.13
2018-03-26T06:55:32.048Z,6.12
2018-03-26T06:56:38.777Z,6.12
2018-03-26T06:57:45.529Z,6.12
2018-03-26T06:58:52.276Z,6.12
2018-03-26T06:59:59.168Z,6.13
2018-03-26T07:01:05.934Z,6.14
2018-03-26T07:02:12.676Z,6.12
2018-03-26T07:03:19.419Z,6.13
2018-03-26T07:04:26.238Z,6.14
2018-03-26T07:05:33.200Z,6.15
2018-03-26T07:06:40.016Z,6.16
2018-03-26T07:07:46.786Z,6.15
2018-03-26T07:08:53.530Z,6.15
2018-03-26T07:10:00.272Z,6.15
2018-03-26T07:11:07.137Z,6.16
2018-03-26T07:12:13.892Z,6.15
2018-03-26T07:13:20.653Z,6.17
2018-03-26T07:14:27.477Z,6.17
2018-03-26T07:15:34.618Z,6.17
2018-03-26T07:16:41.393Z,6.18
2018-03-26T07:17:48.168Z,6.20
2018-03-26T07:18:55.065Z,6.19
2018-03-26T07:20:01.829Z,6.21
2018-03-26T07:21:08.607Z,6.20
2018-03-26T07:22:15.455Z,6.23
2018-03-26T07:23:22.220Z,6.23
2018-03-26T07:24:28.988Z,6.23
2018-03-26T07:25:35.735Z,6.25
2018-03-26T07:26:42.520Z,6.25
2018-03-26T07:27:49.311Z,6.25
2018-03-26T07:28:56.082Z,6.27
2018-03-26T07:30:02.939Z,6.26
2018-03-26T07:31:09.715Z,6.28
2018-03-26T07:32:16.508Z,6.29
2018-03-26T07:33:23.345Z,6.30
2018-03-26T07:34:30.141Z,6.30
2018-03-26T07:35:36.901Z,6.32
2018-03-26T07:36:43.668Z,6.33
2018-03-26T07:37:50.812Z,6.34
2018-03-26T07:38:57.581Z,6.34
2018-03-26T07:40:04.341Z,6.35
2018-03-26T07:41:11.246Z,6.38
2018-03-26T07:42:18.053Z,6.38
2018-03-26T07:43:24.830Z,6.38
2018-03-26T07:44:31.613Z,6.40
2018-03-26T07:45:38.477Z,6.41
2018-03-26T07:46:45.247Z,6.42
2018-03-26T07:47:52.042Z,6.42
2018-03-26T07:48:58.907Z,6.46
2018-03-26T07:50:05.670Z,6.47
2018-03-26T07:51:12.488Z,6.47
2018-03-26T07:52:19.364Z,6.48
2018-03-26T07:53:26.202Z,6.51
2018-03-26T07:54:32.996Z,6.51
2018-03-26T07:55:39.852Z,6.52
2018-03-26T07:56:46.603Z,6.54
2018-03-26T07:57:53.413Z,6.56
2018-03-26T07:59:00.196Z,6.57
2018-03-26T08:00:06.988Z,6.60
2018-03-26T08:01:13.839Z,6.61
2018-03-26T08:02:20.633Z,6.64
2018-03-26T08:03:27.409Z,6.64
2018-03-26T08:04:34.497Z,6.67
2018-03-26T08:05:41.297Z,6.68
2018-03-26T08:06:48.156Z,6.70
2018-03-26T08:07:54.956Z,6.70
2018-03-26T08:09:01.860Z,6.73
2018-03-26T08:10:08.429Z,6.74
2018-03-26T08:11:15.296Z,6.76
2018-03-26T08:12:22.164Z,6.78
2018-03-26T08:13:28.949Z,6.80
2018-03-26T08:14:35.685Z,6.82
2018-03-26T08:15:42.448Z,6.85
2018-03-26T08:16:49.224Z,6.88
2018-03-26T08:17:56.123Z,6.89
2018-03-26T08:19:02.923Z,6.91
2018-03-26T08:20:09.683Z,6.90
2018-03-26T08:21:16.556Z,6.94
2018-03-26T08:22:23.388Z,6.97
2018-03-26T08:23:30.161Z,7.00
2018-03-26T08:24:36.984Z,7.01
2018-03-26T08:25:43.748Z,7.05
2018-03-26T08:26:50.499Z,7.06
2018-03-26T08:27:57.280Z,7.08
2018-03-26T08:29:04.206Z,7.12
2018-03-26T08:30:10.960Z,7.13
2018-03-26T08:31:17.750Z,7.17
2018-03-26T08:32:24.773Z,7.18
2018-03-26T08:33:31.642Z,7.20
2018-03-26T08:34:38.435Z,7.25
2018-03-26T08:35:45.280Z,7.27
2018-03-26T08:36:52.060Z,7.30
2018-03-26T08:37:58.824Z,7.32
2018-03-26T08:39:05.649Z,7.34
2018-03-26T08:40:13.021Z,7.37
2018-03-26T08:41:19.787Z,7.39
2018-03-26T08:42:26.574Z,7.43
2018-03-26T08:43:33.415Z,7.45
2018-03-26T08:44:40.205Z,7.48
2018-03-26T08:45:46.951Z,7.52
2018-03-26T08:46:53.696Z,7.55
2018-03-26T08:48:00.521Z,7.59
2018-03-26T08:49:07.288Z,7.61
2018-03-26T08:50:14.139Z,7.63
2018-03-26T08:51:20.945Z,7.67
2018-03-26T08:52:27.732Z,7.70
2018-03-26T08:53:34.516Z,7.74
2018-03-26T08:54:41.444Z,7.77
2018-03-26T08:55:48.200Z,7.79
2018-03-26T08:56:55.007Z,7.81
2018-03-26T08:58:01.785Z,7.86
2018-03-26T08:59:08.585Z,7.88
2018-03-26T09:00:15.372Z,7.91
2018-03-26T09:01:22.223Z,7.94
2018-03-26T09:02:28.991Z,7.95
2018-03-26T09:03:35.756Z,7.98
2018-03-26T09:04:42.943Z,8.02
2018-03-26T09:05:49.574Z,8.05
2018-03-26T09:06:56.429Z,8.08
2018-03-26T09:08:03.193Z,8.10
2018-03-26T09:09:09.945Z,8.12
2018-03-26T09:10:16.875Z,8.16
2018-03-26T09:11:23.653Z,8.21
2018-03-26T09:12:30.499Z,8.21
2018-03-26T09:13:37.270Z,8.26
2018-03-26T09:14:44.082Z,8.27
2018-03-26T09:15:50.869Z,8.31
2018-03-26T09:16:57.701Z,8.33
2018-03-26T09:18:04.453Z,8.36
2018-03-26T09:19:11.201Z,8.39
2018-03-26T09:20:17.951Z,8.42
2018-03-26T09:21:24.879Z,8.46
2018-03-26T09:22:31.616Z,8.48
2018-03-26T09:23:38.364Z,8.51
2018-03-26T09:24:45.179Z,8.55
2018-03-26T09:25:51.939Z,8.59
2018-03-26T09:26:58.761Z,8.62
2018-03-26T09:28:05.604Z,8.64
2018-03-26T09:29:12.336Z,8.67
2018-03-26T09:30:19.080Z,8.69
2018-03-26T09:31:25.780Z,8.72
2018-03-26T09:32:32.539Z,8.77
2018-03-26T09:33:39.340Z,8.79
2018-03-26T09:34:46.086Z,8.83
2018-03-26T09:35:52.837Z,8.87
2018-03-26T09:36:59.573Z,8.89
2018-03-26T09:38:06.428Z,8.93
2018-03-26T09:39:13.185Z,8.96
2018-03-26T09:40:19.900Z,9.00
2018-03-26T09:41:26.631Z,9.04
2018-03-26T09:42:33.406Z,9.07
2018-03-26T09:43:40.149Z,9.11
2018-03-26T09:44:46.868Z,9.13
2018-03-26T09:45:53.588Z,9.16
2018-03-26T09:47:00.365Z,9.21
2018-03-26T09:48:07.203Z,9.23
2018-03-26T09:49:13.920Z,9.28
2018-03-26T09:50:20.661Z,9.31
2018-03-26T09:51:27.605Z,9.35
2018-03-26T09:52:34.349Z,9.38
2018-03-26T09:53:41.115Z,9.41
2018-03-26T09:54:47.868Z,9.45
2018-03-26T09:55:54.673Z,9.48
2018-03-26T09:57:01.415Z,9.52
2018-03-26T09:58:08.560Z,9.56
2018-03-26T09:59:15.280Z,9.58
2018-03-26T10:00:22.015Z,9.61
2018-03-26T10:01:28.868Z,9.63
2018-03-26T10:02:35.775Z,9.68
2018-03-26T10:03:42.531Z,9.70
2018-03-26T10:04:49.280Z,9.74
2018-03-26T10:05:56.001Z,9.77
2018-03-26T10:07:07.859Z,9.81
2018-03-26T10:08:09.569Z,9.83
2018-03-26T10:09:16.360Z,9.86
2018-03-26T10:10:23.068Z,9.90
2018-03-26T10:11:29.841Z,9.92
2018-03-26T10:12:36.610Z,9.95
2018-03-26T10:13:43.418Z,9.96
2018-03-26T10:14:50.171Z,10.00
2018-03-26T10:15:56.977Z,10.05
2018-03-26T10:17:03.662Z,10.07
2018-03-26T10:18:10.488Z,10.10
2018-03-26T10:19:17.312Z,10.13
2018-03-26T10:20:24.117Z,10.18
2018-03-26T10:21:30.928Z,10.20
2018-03-26T10:22:37.656Z,10.21
2018-03-26T10:23:44.394Z,10.26
2018-03-26T10:24:51.162Z,10.28
2018-03-26T10:25:58.005Z,10.31
2018-03-26T10:27:04.748Z,10.33
2018-03-26T10:28:11.525Z,10.36
2018-03-26T10:29:18.298Z,10.39
2018-03-26T10:30:25.072Z,10.42
2018-03-26T10:31:31.908Z,10.44
2018-03-26T10:32:38.633Z,10.48
2018-03-26T10:33:45.508Z,10.51
2018-03-26T10:34:52.306Z,10.53
2018-03-26T10:35:59.062Z,10.55
2018-03-26T10:37:05.920Z,10.59
2018-03-26T10:38:12.668Z,10.60
2018-03-26T10:39:19.408Z,10.64
2018-03-26T10:40:26.193Z,10.67
2018-03-26T10:41:32.983Z,10.69
2018-03-26T10:42:39.737Z,10.72
2018-03-26T10:43:46.492Z,10.74
2018-03-26T10:44:53.230Z,10.76
2018-03-26T10:46:00.060Z,10.78
2018-03-26T10:47:06.849Z,10.82
2018-03-26T10:48:13.625Z,10.83
2018-03-26T10:49:20.448Z,10.88
2018-03-26T10:50:27.176Z,10.89
2018-03-26T10:51:33.956Z,10.92
2018-03-26T10:52:40.716Z,10.95
2018-03-26T10:53:47.499Z,10.99
2018-03-26T10:54:54.243Z,11.02
2018-03-26T10:56:01.047Z,11.05
2018-03-26T10:57:07.784Z,11.07
2018-03-26T10:58:14.555Z,11.12
2018-03-26T10:59:21.392Z,11.14
2018-03-26T11:00:28.360Z,11.18
2018-03-26T11:01:35.157Z,11.21
2018-03-26T11:02:41.909Z,11.25
2018-03-26T11:03:48.720Z,11.28
2018-03-26T11:04:55.436Z,11.32
2018-03-26T11:06:02.240Z,11.37
2018-03-26T11:07:09.002Z,11.39
2018-03-26T11:08:15.767Z,11.44
2018-03-26T11:09:22.539Z,11.48
2018-03-26T11:10:29.312Z,11.52
2018-03-26T11:11:36.235Z,11.56
2018-03-26T11:12:42.981Z,11.58
2018-03-26T11:13:49.699Z,11.61
2018-03-26T11:14:56.436Z,11.64
2018-03-26T11:16:03.227Z,11.68
2018-03-26T11:17:10.009Z,11.72
2018-03-26T11:18:16.787Z,11.72
2018-03-26T11:19:23.522Z,11.76
2018-03-26T11:20:30.314Z,11.80
2018-03-26T11:21:37.105Z,11.85
2018-03-26T11:22:43.896Z,11.87
2018-03-26T11:23:50.687Z,11.90
2018-03-26T11:24:57.466Z,11.92
2018-03-26T11:26:04.322Z,11.94
2018-03-26T11:27:11.135Z,11.98
2018-03-26T11:28:17.867Z,12.00
2018-03-26T11:29:24.585Z,12.03
2018-03-26T11:30:31.332Z,12.06
2018-03-26T11:31:38.055Z,12.09
2018-03-26T11:32:44.859Z,12.11
2018-03-26T11:33:51.617Z,12.14
2018-03-26T11:34:58.363Z,12.16
2018-03-26T11:36:05.113Z,12.19
2018-03-26T11:37:11.936Z,12.22
2018-03-26T11:38:18.673Z,12.25
2018-03-26T11:39:25.533Z,12.29
2018-03-26T11:40:32.173Z,12.31
2018-03-26T11:41:39.007Z,12.33
2018-03-26T11:42:45.785Z,12.35
2018-03-26T11:43:52.521Z,12.38
2018-03-26T11:44:59.268Z,12.40
2018-03-26T11:46:06.210Z,12.43
2018-03-26T11:47:12.959Z,12.45
2018-03-26T11:48:19.826Z,12.48
2018-03-26T11:49:26.548Z,12.51
2018-03-26T11:50:33.293Z,12.52
2018-03-26T11:51:40.059Z,12.55
2018-03-26T11:52:46.927Z,12.57
2018-03-26T11:53:53.651Z,12.61
2018-03-26T11:55:00.389Z,12.64
2018-03-26T11:56:07.209Z,12.67
2018-03-26T11:57:13.968Z,12.69
2018-03-26T11:58:20.720Z,12.70
2018-03-26T11:59:27.471Z,12.73
2018-03-26T12:00:34.215Z,12.75
2018-03-26T12:01:41.041Z,12.77
2018-03-26T12:02:47.797Z,12.81
2018-03-26T12:03:54.575Z,12.82
2018-03-26T12:05:01.296Z,12.86
2018-03-26T12:06:08.242Z,12.88
2018-03-26T12:07:15.012Z,12.91
2018-03-26T12:08:21.769Z,12.91
2018-03-26T12:09:28.509Z,12.94
2018-03-26T12:10:35.257Z,12.94
2018-03-26T12:11:41.985Z,12.98
2018-03-26T12:12:48.776Z,12.99
2018-03-26T12:13:55.593Z,13.01
2018-03-26T12:15:02.324Z,13.03
2018-03-26T12:16:09.311Z,13.06
2018-03-26T12:17:16.019Z,13.07
2018-03-26T12:18:22.844Z,13.10
2018-03-26T12:19:29.594Z,13.14
2018-03-26T12:20:36.436Z,13.14
2018-03-26T12:21:43.377Z,13.18
2018-03-26T12:22:50.166Z,13.19
2018-03-26T12:23:56.915Z,13.21
2018-03-26T12:25:03.988Z,13.22
2018-03-26T12:26:10.908Z,13.26
2018-03-26T12:27:17.796Z,13.28
2018-03-26T12:28:24.500Z,13.29
2018-03-26T12:29:31.520Z,13.33
2018-03-26T12:30:38.510Z,13.34
2018-03-26T12:31:45.289Z,13.36
2018-03-26T12:32:52.053Z,13.39
2018-03-26T12:33:58.784Z,13.42
2018-03-26T12:35:05.724Z,13.44
2018-03-26T12:36:12.882Z,13.47
2018-03-26T12:37:19.645Z,13.49
2018-03-26T12:38:26.403Z,13.53
2018-03-26T12:39:33.292Z,13.55
2018-03-26T12:40:40.313Z,13.58
2018-03-26T12:41:46.759Z,13.59
2018-03-26T12:42:53.491Z,13.62
2018-03-26T12:44:00.241Z,13.62
2018-03-26T12:45:06.987Z,13.65
2018-03-26T12:46:14.100Z,13.68
2018-03-26T12:47:21.003Z,13.71
2018-03-26T12:48:27.782Z,13.74
2018-03-26T12:49:34.560Z,13.75
2018-03-26T12:50:41.702Z,13.78
2018-03-26T12:51:48.585Z,13.79
2018-03-26T12:52:55.611Z,13.83
2018-03-26T12:54:03.006Z,13.85
2018-03-26T12:55:09.789Z,13.87
2018-03-26T12:56:16.500Z,13.91
2018-03-26T12:57:23.244Z,13.93
2018-03-26T12:58:30.638Z,13.94
2018-03-26T12:59:37.325Z,13.98
2018-03-26T13:00:44.091Z,13.99
2018-03-26T13:01:50.930Z,14.02
2018-03-26T13:02:57.848Z,14.03
2018-03-26T13:04:04.568Z,14.07
2018-03-26T13:05:11.347Z,14.09
2018-03-26T13:06:18.144Z,14.13
2018-03-26T13:07:25.002Z,14.13
2018-03-26T13:08:31.766Z,14.15
2018-03-26T13:09:38.597Z,14.18
2018-03-26T13:10:45.347Z,14.20
2018-03-26T13:11:52.103Z,14.22
2018-03-26T13:12:58.802Z,14.25
2018-03-26T13:14:05.839Z,14.26
2018-03-26T13:15:12.601Z,14.28
2018-03-26T13:16:19.442Z,14.29
2018-03-26T13:17:26.189Z,14.32
2018-03-26T13:18:32.925Z,14.33
2018-03-26T13:19:39.641Z,14.34
2018-03-26T13:20:46.481Z,14.35
2018-03-26T13:21:53.245Z,14.38
2018-03-26T13:22:59.968Z,14.39
2018-03-26T13:24:06.726Z,14.41
2018-03-26T13:25:13.475Z,14.42
2018-03-26T13:26:20.337Z,14.44
2018-03-26T13:27:27.088Z,14.47
2018-03-26T13:28:33.927Z,14.47
2018-03-26T13:29:40.686Z,14.49
2018-03-26T13:30:47.421Z,14.49
2018-03-26T13:31:54.216Z,14.50
2018-03-26T13:33:00.948Z,14.51
2018-03-26T13:34:07.705Z,14.54
2018-03-26T13:35:14.432Z,14.54
2018-03-26T13:36:21.197Z,14.56
2018-03-26T13:37:27.941Z,14.57
2018-03-26T13:38:34.671Z,14.57
2018-03-26T13:39:41.409Z,14.61
2018-03-26T13:40:48.180Z,14.60
2018-03-26T13:41:54.951Z,14.62
2018-03-26T13:43:01.748Z,14.63
2018-03-26T13:44:08.560Z,14.64
2018-03-26T13:45:15.351Z,14.66
2018-03-26T13:46:22.095Z,14.67
2018-03-26T13:47:28.939Z,14.66
2018-03-26T13:48:35.661Z,14.68
2018-03-26T13:49:42.401Z,14.68
2018-03-26T13:50:49.204Z,14.69
2018-03-26T13:51:55.928Z,14.70
2018-03-26T13:53:02.725Z,14.72
2018-03-26T13:54:09.534Z,14.72
2018-03-26T13:55:16.280Z,14.74
2018-03-26T13:56:22.997Z,14.73
2018-03-26T13:57:29.739Z,14.74
2018-03-26T13:58:36.521Z,14.77
2018-03-26T13:59:43.271Z,14.77
2018-03-26T14:00:50.013Z,14.77
2018-03-26T14:01:56.752Z,14.77
2018-03-26T14:03:03.483Z,14.79
2018-03-26T14:04:10.536Z,14.79
2018-03-26T14:05:17.360Z,14.80
2018-03-26T14:06:24.108Z,14.82
2018-03-26T14:07:30.840Z,14.81
2018-03-26T14:08:37.626Z,14.83
2018-03-26T14:09:44.724Z,14.83
2018-03-26T14:10:54.460Z,14.85
2018-03-26T14:12:01.203Z,14.85
2018-03-26T14:13:12.643Z,14.86
2018-03-26T14:14:19.316Z,14.86
2018-03-26T14:15:29.924Z,14.88
2018-03-26T14:16:39.526Z,14.89
2018-03-26T14:17:46.609Z,14.87
2018-03-26T14:18:53.295Z,14.88
2018-03-26T14:20:00.074Z,14.88
2018-03-26T14:21:07.027Z,14.90
2018-03-26T14:22:13.863Z,14.90
2018-03-26T14:23:20.580Z,14.91
2018-03-26T14:24:27.311Z,14.91
2018-03-26T14:25:34.088Z,14.90
2018-03-26T14:26:40.805Z,14.90
2018-03-26T14:27:47.589Z,14.89
2018-03-26T14:28:54.459Z,14.89
2018-03-26T14:30:01.239Z,14.90
2018-03-26T14:31:08.292Z,14.90
2018-03-26T14:32:15.060Z,14.90
2018-03-26T14:33:21.852Z,14.91
2018-03-26T14:34:28.669Z,14.91
2018-03-26T14:35:35.439Z,14.89
2018-03-26T14:36:42.297Z,14.90
2018-03-26T14:37:49.162Z,14.90
2018-03-26T14:38:56.052Z,14.90
2018-03-26T14:40:02.873Z,14.90